sensor_id;sensor_type;location;lat;lon;timestamp;P1;durP1;ratioP1;P2;durP2;ratioP2
68379;SDS011;57711;53.196;19.638;2024-02-28T00:02:05;86.40;;;36.70;;
68379;SDS011;57711;53.196;19.638;2024-02-28T00:04:32;98.20;;;41.00;;
68379;SDS011;57711;53.196;19.638;2024-02-28T00:06:59;86.10;;;36.80;;
68379;SDS011;57711;53.196;19.638;2024-02-28T00:09:26;84.60;;;34.20;;
68379;SDS011;57711;53.196;19.638;2024-02-28T00:11:53;91.90;;;36.50;;
68379;SDS011;57711;53.196;19.638;2024-02-28T00:14:20;79.50;;;31.20;;
68379;SDS011;57711;53.196;19.638;2024-02-28T00:16:47;87.90;;;31.00;;
68379;SDS011;57711;53.196;19.638;2024-02-28T00:19:15;81.30;;;32.90;;
68379;SDS011;57711;53.196;19.638;2024-02-28T00:21:43;77.90;;;30.80;;
68379;SDS011;57711;53.196;19.638;2024-02-28T00:24:11;72.20;;;28.70;;
68379;SDS011;57711;53.196;19.638;2024-02-28T00:26:41;77.80;;;31.80;;
68379;SDS011;57711;53.196;19.638;2024-02-28T00:29:10;83.50;;;32.90;;
68379;SDS011;57711;53.196;19.638;2024-02-28T00:31:37;83.00;;;32.50;;
68379;SDS011;57711;53.196;19.638;2024-02-28T00:34:04;76.50;;;33.40;;
68379;SDS011;57711;53.196;19.638;2024-02-28T00:36:31;80.20;;;31.30;;
68379;SDS011;57711;53.196;19.638;2024-02-28T00:39:14;72.40;;;29.90;;
68379;SDS011;57711;53.196;19.638;2024-02-28T00:41:41;75.60;;;30.20;;
68379;SDS011;57711;53.196;19.638;2024-02-28T00:44:08;70.60;;;30.50;;
68379;SDS011;57711;53.196;19.638;2024-02-28T00:46:36;69.20;;;30.10;;
68379;SDS011;57711;53.196;19.638;2024-02-28T00:49:03;63.90;;;29.30;;
68379;SDS011;57711;53.196;19.638;2024-02-28T00:51:30;68.20;;;30.60;;
68379;SDS011;57711;53.196;19.638;2024-02-28T00:53:57;71.80;;;32.30;;
68379;SDS011;57711;53.196;19.638;2024-02-28T00:56:24;78.50;;;32.40;;
68379;SDS011;57711;53.196;19.638;2024-02-28T00:58:51;81.10;;;31.70;;
68379;SDS011;57711;53.196;19.638;2024-02-28T01:01:19;82.20;;;34.00;;
68379;SDS011;57711;53.196;19.638;2024-02-28T01:03:46;66.40;;;29.90;;
68379;SDS011;57711;53.196;19.638;2024-02-28T01:06:13;72.10;;;29.50;;
68379;SDS011;57711;53.196;19.638;2024-02-28T01:08:41;64.70;;;30.20;;
68379;SDS011;57711;53.196;19.638;2024-02-28T01:11:09;59.10;;;30.10;;
68379;SDS011;57711;53.196;19.638;2024-02-28T01:13:37;59.80;;;28.00;;
68379;SDS011;57711;53.196;19.638;2024-02-28T01:16:04;57.10;;;27.20;;
68379;SDS011;57711;53.196;19.638;2024-02-28T01:18:31;58.80;;;25.90;;
68379;SDS011;57711;53.196;19.638;2024-02-28T01:20:59;56.00;;;26.70;;
68379;SDS011;57711;53.196;19.638;2024-02-28T01:23:26;60.90;;;28.80;;
68379;SDS011;57711;53.196;19.638;2024-02-28T01:25:53;71.30;;;32.80;;
68379;SDS011;57711;53.196;19.638;2024-02-28T01:28:20;70.60;;;31.80;;
68379;SDS011;57711;53.196;19.638;2024-02-28T01:30:48;65.80;;;28.60;;
68379;SDS011;57711;53.196;19.638;2024-02-28T01:33:15;55.50;;;27.10;;
68379;SDS011;57711;53.196;19.638;2024-02-28T01:35:43;71.90;;;31.10;;
68379;SDS011;57711;53.196;19.638;2024-02-28T01:38:10;63.60;;;28.50;;
68379;SDS011;57711;53.196;19.638;2024-02-28T01:40:37;61.90;;;28.20;;
68379;SDS011;57711;53.196;19.638;2024-02-28T01:43:08;63.00;;;26.80;;
68379;SDS011;57711;53.196;19.638;2024-02-28T01:45:35;66.60;;;27.70;;
68379;SDS011;57711;53.196;19.638;2024-02-28T01:48:02;72.00;;;30.80;;
68379;SDS011;57711;53.196;19.638;2024-02-28T01:50:34;78.30;;;33.70;;
68379;SDS011;57711;53.196;19.638;2024-02-28T01:53:03;71.00;;;31.30;;
68379;SDS011;57711;53.196;19.638;2024-02-28T01:55:32;69.00;;;32.30;;
68379;SDS011;57711;53.196;19.638;2024-02-28T01:57:59;69.20;;;29.20;;
68379;SDS011;57711;53.196;19.638;2024-02-28T02:00:27;62.60;;;27.50;;
68379;SDS011;57711;53.196;19.638;2024-02-28T02:02:54;70.00;;;32.40;;
68379;SDS011;57711;53.196;19.638;2024-02-28T02:05:22;70.20;;;30.60;;
68379;SDS011;57711;53.196;19.638;2024-02-28T02:07:49;59.30;;;26.20;;
68379;SDS011;57711;53.196;19.638;2024-02-28T02:10:17;60.60;;;27.30;;
68379;SDS011;57711;53.196;19.638;2024-02-28T02:12:44;72.80;;;28.60;;
68379;SDS011;57711;53.196;19.638;2024-02-28T02:15:12;61.50;;;27.70;;
68379;SDS011;57711;53.196;19.638;2024-02-28T02:17:39;59.00;;;27.80;;
68379;SDS011;57711;53.196;19.638;2024-02-28T02:20:06;73.00;;;28.90;;
68379;SDS011;57711;53.196;19.638;2024-02-28T02:22:37;65.50;;;28.50;;
68379;SDS011;57711;53.196;19.638;2024-02-28T02:25:05;56.90;;;27.50;;
68379;SDS011;57711;53.196;19.638;2024-02-28T02:27:33;62.60;;;27.90;;
68379;SDS011;57711;53.196;19.638;2024-02-28T02:30:00;63.90;;;28.10;;
68379;SDS011;57711;53.196;19.638;2024-02-28T02:32:27;60.70;;;27.20;;
68379;SDS011;57711;53.196;19.638;2024-02-28T02:34:55;66.20;;;27.90;;
68379;SDS011;57711;53.196;19.638;2024-02-28T02:37:22;64.40;;;27.90;;
68379;SDS011;57711;53.196;19.638;2024-02-28T02:39:50;57.30;;;25.40;;
68379;SDS011;57711;53.196;19.638;2024-02-28T02:42:18;53.20;;;24.00;;
68379;SDS011;57711;53.196;19.638;2024-02-28T02:44:45;48.50;;;24.20;;
68379;SDS011;57711;53.196;19.638;2024-02-28T02:47:12;48.30;;;22.80;;
68379;SDS011;57711;53.196;19.638;2024-02-28T02:49:39;55.80;;;24.40;;
68379;SDS011;57711;53.196;19.638;2024-02-28T02:52:06;52.90;;;23.60;;
68379;SDS011;57711;53.196;19.638;2024-02-28T02:54:33;53.90;;;23.30;;
68379;SDS011;57711;53.196;19.638;2024-02-28T02:57:00;47.60;;;22.20;;
68379;SDS011;57711;53.196;19.638;2024-02-28T02:59:27;43.90;;;21.10;;
68379;SDS011;57711;53.196;19.638;2024-02-28T03:01:54;45.50;;;23.10;;
68379;SDS011;57711;53.196;19.638;2024-02-28T03:04:22;44.70;;;21.70;;
68379;SDS011;57711;53.196;19.638;2024-02-28T03:06:49;49.20;;;22.90;;
68379;SDS011;57711;53.196;19.638;2024-02-28T03:09:16;67.20;;;24.90;;
68379;SDS011;57711;53.196;19.638;2024-02-28T03:11:43;62.00;;;26.10;;
68379;SDS011;57711;53.196;19.638;2024-02-28T03:14:11;51.30;;;21.70;;
68379;SDS011;57711;53.196;19.638;2024-02-28T03:16:41;57.80;;;24.20;;
68379;SDS011;57711;53.196;19.638;2024-02-28T03:19:10;50.00;;;23.60;;
68379;SDS011;57711;53.196;19.638;2024-02-28T03:21:37;48.20;;;23.50;;
68379;SDS011;57711;53.196;19.638;2024-02-28T03:24:04;52.90;;;24.10;;
68379;SDS011;57711;53.196;19.638;2024-02-28T03:26:32;53.50;;;24.70;;
68379;SDS011;57711;53.196;19.638;2024-02-28T03:28:59;53.40;;;23.80;;
68379;SDS011;57711;53.196;19.638;2024-02-28T03:31:27;46.00;;;22.40;;
68379;SDS011;57711;53.196;19.638;2024-02-28T03:33:54;47.20;;;21.90;;
68379;SDS011;57711;53.196;19.638;2024-02-28T03:36:21;43.50;;;21.80;;
68379;SDS011;57711;53.196;19.638;2024-02-28T03:38:49;50.60;;;23.30;;
68379;SDS011;57711;53.196;19.638;2024-02-28T03:41:16;53.90;;;23.20;;
68379;SDS011;57711;53.196;19.638;2024-02-28T03:43:43;49.20;;;21.20;;
68379;SDS011;57711;53.196;19.638;2024-02-28T03:46:10;51.20;;;23.10;;
68379;SDS011;57711;53.196;19.638;2024-02-28T03:48:37;39.90;;;21.30;;
68379;SDS011;57711;53.196;19.638;2024-02-28T03:51:04;49.70;;;23.90;;
68379;SDS011;57711;53.196;19.638;2024-02-28T03:53:31;44.80;;;23.10;;
68379;SDS011;57711;53.196;19.638;2024-02-28T03:55:59;44.60;;;22.00;;
68379;SDS011;57711;53.196;19.638;2024-02-28T03:58:28;45.40;;;22.40;;
68379;SDS011;57711;53.196;19.638;2024-02-28T04:00:55;46.10;;;22.40;;
68379;SDS011;57711;53.196;19.638;2024-02-28T04:03:22;51.10;;;22.50;;
68379;SDS011;57711;53.196;19.638;2024-02-28T04:05:49;38.30;;;19.20;;
68379;SDS011;57711;53.196;19.638;2024-02-28T04:08:16;45.60;;;20.10;;
68379;SDS011;57711;53.196;19.638;2024-02-28T04:10:43;42.00;;;20.70;;
68379;SDS011;57711;53.196;19.638;2024-02-28T04:13:11;41.80;;;21.60;;
68379;SDS011;57711;53.196;19.638;2024-02-28T04:15:38;42.40;;;21.00;;
68379;SDS011;57711;53.196;19.638;2024-02-28T04:18:05;43.90;;;21.60;;
68379;SDS011;57711;53.196;19.638;2024-02-28T04:20:33;47.00;;;22.70;;
68379;SDS011;57711;53.196;19.638;2024-02-28T04:23:00;44.60;;;21.90;;
68379;SDS011;57711;53.196;19.638;2024-02-28T04:25:27;48.70;;;24.80;;
68379;SDS011;57711;53.196;19.638;2024-02-28T04:27:54;43.90;;;21.00;;
68379;SDS011;57711;53.196;19.638;2024-02-28T04:30:22;39.60;;;20.50;;
68379;SDS011;57711;53.196;19.638;2024-02-28T04:32:49;40.90;;;20.20;;
68379;SDS011;57711;53.196;19.638;2024-02-28T04:35:16;40.20;;;20.40;;
68379;SDS011;57711;53.196;19.638;2024-02-28T04:37:45;41.90;;;19.30;;
68379;SDS011;57711;53.196;19.638;2024-02-28T04:40:13;42.40;;;20.30;;
68379;SDS011;57711;53.196;19.638;2024-02-28T04:42:40;39.10;;;19.50;;
68379;SDS011;57711;53.196;19.638;2024-02-28T04:45:09;46.20;;;21.90;;
68379;SDS011;57711;53.196;19.638;2024-02-28T04:47:37;49.80;;;23.70;;
68379;SDS011;57711;53.196;19.638;2024-02-28T04:50:10;53.80;;;25.00;;
68379;SDS011;57711;53.196;19.638;2024-02-28T04:52:38;50.60;;;23.20;;
68379;SDS011;57711;53.196;19.638;2024-02-28T04:55:05;50.20;;;21.50;;
68379;SDS011;57711;53.196;19.638;2024-02-28T04:57:33;56.30;;;27.50;;
68379;SDS011;57711;53.196;19.638;2024-02-28T05:00:00;49.20;;;23.50;;
68379;SDS011;57711;53.196;19.638;2024-02-28T05:02:27;59.00;;;29.90;;
68379;SDS011;57711;53.196;19.638;2024-02-28T05:04:54;51.30;;;25.60;;
68379;SDS011;57711;53.196;19.638;2024-02-28T05:07:22;44.00;;;24.30;;
68379;SDS011;57711;53.196;19.638;2024-02-28T05:09:49;43.10;;;22.50;;
68379;SDS011;57711;53.196;19.638;2024-02-28T05:12:16;44.20;;;21.50;;
68379;SDS011;57711;53.196;19.638;2024-02-28T05:14:43;45.10;;;20.90;;
68379;SDS011;57711;53.196;19.638;2024-02-28T05:17:10;37.70;;;19.40;;
68379;SDS011;57711;53.196;19.638;2024-02-28T05:19:38;50.10;;;23.80;;
68379;SDS011;57711;53.196;19.638;2024-02-28T05:22:06;56.60;;;24.50;;
68379;SDS011;57711;53.196;19.638;2024-02-28T05:24:33;51.50;;;23.70;;
68379;SDS011;57711;53.196;19.638;2024-02-28T05:27:00;42.80;;;21.50;;
68379;SDS011;57711;53.196;19.638;2024-02-28T05:29:27;45.80;;;23.10;;
68379;SDS011;57711;53.196;19.638;2024-02-28T05:31:54;42.70;;;23.10;;
68379;SDS011;57711;53.196;19.638;2024-02-28T05:34:21;46.00;;;22.20;;
68379;SDS011;57711;53.196;19.638;2024-02-28T05:36:49;45.90;;;26.50;;
68379;SDS011;57711;53.196;19.638;2024-02-28T05:39:17;67.60;;;35.50;;
68379;SDS011;57711;53.196;19.638;2024-02-28T05:41:44;60.80;;;33.40;;
68379;SDS011;57711;53.196;19.638;2024-02-28T05:44:11;44.20;;;25.60;;
68379;SDS011;57711;53.196;19.638;2024-02-28T05:46:39;101.80;;;60.10;;
68379;SDS011;57711;53.196;19.638;2024-02-28T05:49:06;91.90;;;50.20;;
68379;SDS011;57711;53.196;19.638;2024-02-28T05:51:34;98.60;;;62.90;;
68379;SDS011;57711;53.196;19.638;2024-02-28T05:54:03;65.60;;;39.40;;
68379;SDS011;57711;53.196;19.638;2024-02-28T05:56:30;62.40;;;37.50;;
68379;SDS011;57711;53.196;19.638;2024-02-28T05:58:58;119.60;;;69.90;;
68379;SDS011;57711;53.196;19.638;2024-02-28T06:01:25;84.60;;;48.80;;
68379;SDS011;57711;53.196;19.638;2024-02-28T06:03:52;69.10;;;38.90;;
68379;SDS011;57711;53.196;19.638;2024-02-28T06:06:19;63.40;;;38.60;;
68379;SDS011;57711;53.196;19.638;2024-02-28T06:08:47;56.40;;;33.60;;
68379;SDS011;57711;53.196;19.638;2024-02-28T06:11:14;39.20;;;23.50;;
68379;SDS011;57711;53.196;19.638;2024-02-28T06:13:41;37.90;;;20.60;;
68379;SDS011;57711;53.196;19.638;2024-02-28T06:16:15;37.80;;;23.40;;
68379;SDS011;57711;53.196;19.638;2024-02-28T06:18:44;32.60;;;20.00;;
68379;SDS011;57711;53.196;19.638;2024-02-28T06:21:13;28.50;;;17.50;;
68379;SDS011;57711;53.196;19.638;2024-02-28T06:23:41;71.60;;;33.50;;
68379;SDS011;57711;53.196;19.638;2024-02-28T06:26:08;73.60;;;40.80;;
68379;SDS011;57711;53.196;19.638;2024-02-28T06:28:42;112.20;;;77.00;;
68379;SDS011;57711;53.196;19.638;2024-02-28T06:31:16;82.00;;;56.80;;
68379;SDS011;57711;53.196;19.638;2024-02-28T06:33:44;59.20;;;39.30;;
68379;SDS011;57711;53.196;19.638;2024-02-28T06:36:11;61.30;;;37.10;;
68379;SDS011;57711;53.196;19.638;2024-02-28T06:38:38;51.10;;;31.80;;
68379;SDS011;57711;53.196;19.638;2024-02-28T06:41:05;44.40;;;28.00;;
68379;SDS011;57711;53.196;19.638;2024-02-28T06:43:33;37.40;;;22.50;;
68379;SDS011;57711;53.196;19.638;2024-02-28T06:46:02;34.60;;;22.10;;
68379;SDS011;57711;53.196;19.638;2024-02-28T06:48:30;38.20;;;19.50;;
68379;SDS011;57711;53.196;19.638;2024-02-28T06:50:57;26.90;;;15.60;;
68379;SDS011;57711;53.196;19.638;2024-02-28T06:53:25;24.10;;;14.40;;
68379;SDS011;57711;53.196;19.638;2024-02-28T06:55:53;25.70;;;15.20;;
68379;SDS011;57711;53.196;19.638;2024-02-28T06:58:20;27.60;;;14.20;;
68379;SDS011;57711;53.196;19.638;2024-02-28T07:00:48;23.70;;;13.40;;
68379;SDS011;57711;53.196;19.638;2024-02-28T07:03:20;25.20;;;12.90;;
68379;SDS011;57711;53.196;19.638;2024-02-28T07:05:47;27.20;;;15.90;;
68379;SDS011;57711;53.196;19.638;2024-02-28T07:08:14;24.90;;;15.50;;
68379;SDS011;57711;53.196;19.638;2024-02-28T07:10:42;40.30;;;21.50;;
68379;SDS011;57711;53.196;19.638;2024-02-28T07:13:10;31.60;;;15.10;;
68379;SDS011;57711;53.196;19.638;2024-02-28T07:15:38;41.60;;;19.10;;
68379;SDS011;57711;53.196;19.638;2024-02-28T07:18:07;39.10;;;18.30;;
68379;SDS011;57711;53.196;19.638;2024-02-28T07:20:34;28.80;;;16.20;;
68379;SDS011;57711;53.196;19.638;2024-02-28T07:23:01;27.70;;;16.20;;
68379;SDS011;57711;53.196;19.638;2024-02-28T07:25:28;31.80;;;18.40;;
68379;SDS011;57711;53.196;19.638;2024-02-28T07:27:57;35.50;;;20.30;;
68379;SDS011;57711;53.196;19.638;2024-02-28T07:30:26;55.70;;;24.10;;
68379;SDS011;57711;53.196;19.638;2024-02-28T07:32:53;40.40;;;20.50;;
68379;SDS011;57711;53.196;19.638;2024-02-28T07:35:21;38.90;;;20.30;;
68379;SDS011;57711;53.196;19.638;2024-02-28T07:37:50;41.40;;;21.90;;
68379;SDS011;57711;53.196;19.638;2024-02-28T07:40:17;56.50;;;29.30;;
68379;SDS011;57711;53.196;19.638;2024-02-28T07:42:45;66.00;;;28.30;;
68379;SDS011;57711;53.196;19.638;2024-02-28T07:45:13;47.30;;;22.90;;
68379;SDS011;57711;53.196;19.638;2024-02-28T07:47:40;63.80;;;26.80;;
68379;SDS011;57711;53.196;19.638;2024-02-28T07:50:07;64.20;;;30.30;;
68379;SDS011;57711;53.196;19.638;2024-02-28T07:52:34;72.80;;;29.50;;
68379;SDS011;57711;53.196;19.638;2024-02-28T07:55:04;58.00;;;26.20;;
68379;SDS011;57711;53.196;19.638;2024-02-28T07:57:32;52.40;;;24.30;;
68379;SDS011;57711;53.196;19.638;2024-02-28T08:00:00;44.90;;;23.00;;
68379;SDS011;57711;53.196;19.638;2024-02-28T08:02:37;53.10;;;26.30;;
68379;SDS011;57711;53.196;19.638;2024-02-28T08:05:06;44.10;;;23.80;;
68379;SDS011;57711;53.196;19.638;2024-02-28T08:07:34;50.80;;;23.70;;
68379;SDS011;57711;53.196;19.638;2024-02-28T08:10:02;33.80;;;17.90;;
68379;SDS011;57711;53.196;19.638;2024-02-28T08:12:32;42.50;;;22.10;;
68379;SDS011;57711;53.196;19.638;2024-02-28T08:14:59;42.20;;;21.10;;
68379;SDS011;57711;53.196;19.638;2024-02-28T08:17:26;36.30;;;18.70;;
68379;SDS011;57711;53.196;19.638;2024-02-28T08:19:53;35.60;;;19.90;;
68379;SDS011;57711;53.196;19.638;2024-02-28T08:22:21;42.10;;;20.80;;
68379;SDS011;57711;53.196;19.638;2024-02-28T08:24:50;31.20;;;18.20;;
68379;SDS011;57711;53.196;19.638;2024-02-28T08:27:18;32.20;;;17.10;;
68379;SDS011;57711;53.196;19.638;2024-02-28T08:29:46;28.80;;;16.20;;
68379;SDS011;57711;53.196;19.638;2024-02-28T08:32:14;30.20;;;16.50;;
68379;SDS011;57711;53.196;19.638;2024-02-28T08:34:44;32.50;;;17.20;;
68379;SDS011;57711;53.196;19.638;2024-02-28T08:37:15;33.40;;;16.20;;
68379;SDS011;57711;53.196;19.638;2024-02-28T08:39:44;34.40;;;19.30;;
68379;SDS011;57711;53.196;19.638;2024-02-28T08:42:11;30.30;;;15.20;;
68379;SDS011;57711;53.196;19.638;2024-02-28T08:44:39;26.90;;;13.90;;
68379;SDS011;57711;53.196;19.638;2024-02-28T08:47:06;23.30;;;14.10;;
68379;SDS011;57711;53.196;19.638;2024-02-28T08:49:40;25.40;;;14.30;;
68379;SDS011;57711;53.196;19.638;2024-02-28T08:52:07;27.20;;;14.10;;
68379;SDS011;57711;53.196;19.638;2024-02-28T08:54:35;24.50;;;14.10;;
68379;SDS011;57711;53.196;19.638;2024-02-28T08:57:02;24.20;;;13.40;;
68379;SDS011;57711;53.196;19.638;2024-02-28T08:59:30;43.40;;;20.20;;
68379;SDS011;57711;53.196;19.638;2024-02-28T09:01:57;39.00;;;19.20;;
68379;SDS011;57711;53.196;19.638;2024-02-28T09:04:25;41.70;;;20.20;;
68379;SDS011;57711;53.196;19.638;2024-02-28T09:06:52;32.80;;;17.60;;
68379;SDS011;57711;53.196;19.638;2024-02-28T09:09:22;23.20;;;13.60;;
68379;SDS011;57711;53.196;19.638;2024-02-28T09:11:49;23.90;;;13.30;;
68379;SDS011;57711;53.196;19.638;2024-02-28T09:14:17;24.80;;;14.10;;
68379;SDS011;57711;53.196;19.638;2024-02-28T09:16:44;33.70;;;16.90;;
68379;SDS011;57711;53.196;19.638;2024-02-28T09:19:11;24.80;;;14.60;;
68379;SDS011;57711;53.196;19.638;2024-02-28T09:21:38;25.70;;;14.30;;
68379;SDS011;57711;53.196;19.638;2024-02-28T09:24:05;23.40;;;14.30;;
68379;SDS011;57711;53.196;19.638;2024-02-28T09:26:32;25.60;;;14.80;;
68379;SDS011;57711;53.196;19.638;2024-02-28T09:28:59;26.60;;;15.30;;
68379;SDS011;57711;53.196;19.638;2024-02-28T09:31:26;25.60;;;15.20;;
68379;SDS011;57711;53.196;19.638;2024-02-28T09:33:54;22.90;;;13.90;;
68379;SDS011;57711;53.196;19.638;2024-02-28T09:36:21;25.90;;;14.80;;
68379;SDS011;57711;53.196;19.638;2024-02-28T09:38:48;20.30;;;12.40;;
68379;SDS011;57711;53.196;19.638;2024-02-28T09:41:15;18.90;;;12.80;;
68379;SDS011;57711;53.196;19.638;2024-02-28T09:43:43;20.30;;;12.60;;
68379;SDS011;57711;53.196;19.638;2024-02-28T09:46:12;18.00;;;12.10;;
68379;SDS011;57711;53.196;19.638;2024-02-28T09:48:41;19.10;;;12.80;;
68379;SDS011;57711;53.196;19.638;2024-02-28T09:51:08;20.90;;;13.10;;
68379;SDS011;57711;53.196;19.638;2024-02-28T09:53:39;21.60;;;12.90;;
68379;SDS011;57711;53.196;19.638;2024-02-28T09:56:07;20.10;;;12.30;;
68379;SDS011;57711;53.196;19.638;2024-02-28T09:58:34;19.40;;;12.40;;
68379;SDS011;57711;53.196;19.638;2024-02-28T10:01:02;18.00;;;11.80;;
68379;SDS011;57711;53.196;19.638;2024-02-28T10:03:36;18.90;;;11.90;;
68379;SDS011;57711;53.196;19.638;2024-02-28T10:06:05;19.70;;;11.80;;
68379;SDS011;57711;53.196;19.638;2024-02-28T10:08:35;18.70;;;13.00;;
68379;SDS011;57711;53.196;19.638;2024-02-28T10:11:03;31.60;;;19.50;;
68379;SDS011;57711;53.196;19.638;2024-02-28T10:13:31;26.70;;;16.90;;
68379;SDS011;57711;53.196;19.638;2024-02-28T10:15:58;20.20;;;12.10;;
68379;SDS011;57711;53.196;19.638;2024-02-28T10:18:25;17.00;;;10.60;;
68379;SDS011;57711;53.196;19.638;2024-02-28T10:20:53;18.70;;;11.00;;
68379;SDS011;57711;53.196;19.638;2024-02-28T10:23:20;21.90;;;12.80;;
68379;SDS011;57711;53.196;19.638;2024-02-28T10:25:47;24.70;;;14.70;;
68379;SDS011;57711;53.196;19.638;2024-02-28T10:28:23;20.40;;;13.30;;
68379;SDS011;57711;53.196;19.638;2024-02-28T10:30:51;22.20;;;12.70;;
68379;SDS011;57711;53.196;19.638;2024-02-28T10:33:18;20.90;;;11.90;;
68379;SDS011;57711;53.196;19.638;2024-02-28T10:35:46;46.70;;;23.80;;
68379;SDS011;57711;53.196;19.638;2024-02-28T10:38:18;61.20;;;29.40;;
68379;SDS011;57711;53.196;19.638;2024-02-28T10:40:47;28.80;;;13.50;;
68379;SDS011;57711;53.196;19.638;2024-02-28T10:43:16;20.90;;;10.60;;
68379;SDS011;57711;53.196;19.638;2024-02-28T10:45:44;17.10;;;9.40;;
68379;SDS011;57711;53.196;19.638;2024-02-28T10:48:33;10.30;;;7.10;;
68379;SDS011;57711;53.196;19.638;2024-02-28T10:51:00;11.20;;;7.20;;
68379;SDS011;57711;53.196;19.638;2024-02-28T10:53:37;16.70;;;9.30;;
68379;SDS011;57711;53.196;19.638;2024-02-28T10:56:09;13.00;;;8.20;;
68379;SDS011;57711;53.196;19.638;2024-02-28T10:58:41;22.10;;;11.00;;
68379;SDS011;57711;53.196;19.638;2024-02-28T11:01:23;17.70;;;8.70;;
68379;SDS011;57711;53.196;19.638;2024-02-28T11:03:51;10.20;;;6.50;;
68379;SDS011;57711;53.196;19.638;2024-02-28T11:06:21;38.70;;;17.00;;
68379;SDS011;57711;53.196;19.638;2024-02-28T11:08:49;20.70;;;10.60;;
68379;SDS011;57711;53.196;19.638;2024-02-28T11:11:21;12.60;;;7.30;;
68379;SDS011;57711;53.196;19.638;2024-02-28T11:13:53;12.50;;;7.60;;
68379;SDS011;57711;53.196;19.638;2024-02-28T11:16:34;8.10;;;6.10;;
68379;SDS011;57711;53.196;19.638;2024-02-28T11:19:03;12.70;;;7.80;;
68379;SDS011;57711;53.196;19.638;2024-02-28T11:21:33;11.10;;;6.60;;
68379;SDS011;57711;53.196;19.638;2024-02-28T11:24:01;10.80;;;6.60;;
68379;SDS011;57711;53.196;19.638;2024-02-28T11:26:30;11.20;;;6.60;;
68379;SDS011;57711;53.196;19.638;2024-02-28T11:28:57;19.80;;;10.60;;
68379;SDS011;57711;53.196;19.638;2024-02-28T11:31:24;10.80;;;6.20;;
68379;SDS011;57711;53.196;19.638;2024-02-28T11:33:52;13.60;;;6.50;;
68379;SDS011;57711;53.196;19.638;2024-02-28T11:36:19;12.10;;;7.70;;
68379;SDS011;57711;53.196;19.638;2024-02-28T11:38:47;11.30;;;7.90;;
68379;SDS011;57711;53.196;19.638;2024-02-28T11:41:14;13.40;;;8.00;;
68379;SDS011;57711;53.196;19.638;2024-02-28T11:43:41;15.10;;;9.30;;
68379;SDS011;57711;53.196;19.638;2024-02-28T11:46:18;14.30;;;7.30;;
68379;SDS011;57711;53.196;19.638;2024-02-28T11:48:45;15.10;;;7.80;;
68379;SDS011;57711;53.196;19.638;2024-02-28T11:51:13;14.10;;;8.20;;
68379;SDS011;57711;53.196;19.638;2024-02-28T11:53:40;14.00;;;8.00;;
68379;SDS011;57711;53.196;19.638;2024-02-28T11:56:08;14.40;;;7.80;;
68379;SDS011;57711;53.196;19.638;2024-02-28T11:58:35;18.60;;;9.30;;
68379;SDS011;57711;53.196;19.638;2024-02-28T12:01:03;16.10;;;9.60;;
68379;SDS011;57711;53.196;19.638;2024-02-28T12:03:30;13.50;;;8.30;;
68379;SDS011;57711;53.196;19.638;2024-02-28T12:05:57;16.00;;;8.80;;
68379;SDS011;57711;53.196;19.638;2024-02-28T12:08:27;13.60;;;7.60;;
68379;SDS011;57711;53.196;19.638;2024-02-28T12:11:05;14.40;;;8.50;;
68379;SDS011;57711;53.196;19.638;2024-02-28T12:13:33;18.40;;;11.10;;
68379;SDS011;57711;53.196;19.638;2024-02-28T12:16:01;14.00;;;9.30;;
68379;SDS011;57711;53.196;19.638;2024-02-28T12:18:29;16.90;;;8.80;;
68379;SDS011;57711;53.196;19.638;2024-02-28T12:20:56;13.10;;;8.30;;
68379;SDS011;57711;53.196;19.638;2024-02-28T12:23:24;25.60;;;14.20;;
68379;SDS011;57711;53.196;19.638;2024-02-28T12:25:51;25.30;;;13.30;;
68379;SDS011;57711;53.196;19.638;2024-02-28T12:28:18;15.10;;;9.40;;
68379;SDS011;57711;53.196;19.638;2024-02-28T12:30:45;17.70;;;9.80;;
68379;SDS011;57711;53.196;19.638;2024-02-28T12:33:13;20.20;;;11.10;;
68379;SDS011;57711;53.196;19.638;2024-02-28T12:35:40;15.70;;;9.10;;
68379;SDS011;57711;53.196;19.638;2024-02-28T12:38:09;15.60;;;9.00;;
68379;SDS011;57711;53.196;19.638;2024-02-28T12:40:36;15.10;;;8.90;;
68379;SDS011;57711;53.196;19.638;2024-02-28T12:43:04;16.60;;;9.10;;
68379;SDS011;57711;53.196;19.638;2024-02-28T12:45:31;19.90;;;10.60;;
68379;SDS011;57711;53.196;19.638;2024-02-28T12:47:58;20.50;;;10.70;;
68379;SDS011;57711;53.196;19.638;2024-02-28T12:50:28;19.40;;;10.30;;
68379;SDS011;57711;53.196;19.638;2024-02-28T12:52:55;16.10;;;10.50;;
68379;SDS011;57711;53.196;19.638;2024-02-28T12:55:23;18.10;;;10.50;;
68379;SDS011;57711;53.196;19.638;2024-02-28T12:57:50;14.50;;;9.70;;
68379;SDS011;57711;53.196;19.638;2024-02-28T13:00:17;16.30;;;9.90;;
68379;SDS011;57711;53.196;19.638;2024-02-28T13:02:45;15.30;;;10.20;;
68379;SDS011;57711;53.196;19.638;2024-02-28T13:05:12;19.80;;;11.60;;
68379;SDS011;57711;53.196;19.638;2024-02-28T13:07:40;17.50;;;10.50;;
68379;SDS011;57711;53.196;19.638;2024-02-28T13:10:08;15.80;;;10.20;;
68379;SDS011;57711;53.196;19.638;2024-02-28T13:12:37;16.60;;;10.20;;
68379;SDS011;57711;53.196;19.638;2024-02-28T13:15:06;16.80;;;10.30;;
68379;SDS011;57711;53.196;19.638;2024-02-28T13:17:34;13.70;;;9.30;;
68379;SDS011;57711;53.196;19.638;2024-02-28T13:20:02;18.10;;;10.00;;
68379;SDS011;57711;53.196;19.638;2024-02-28T13:22:30;12.30;;;9.30;;
68379;SDS011;57711;53.196;19.638;2024-02-28T13:24:57;13.30;;;9.10;;
68379;SDS011;57711;53.196;19.638;2024-02-28T13:27:25;14.80;;;9.90;;
68379;SDS011;57711;53.196;19.638;2024-02-28T13:29:52;16.10;;;10.60;;
68379;SDS011;57711;53.196;19.638;2024-02-28T13:32:19;15.80;;;10.00;;
68379;SDS011;57711;53.196;19.638;2024-02-28T13:34:46;13.90;;;9.40;;
68379;SDS011;57711;53.196;19.638;2024-02-28T13:37:15;16.90;;;9.20;;
68379;SDS011;57711;53.196;19.638;2024-02-28T13:39:43;13.60;;;9.30;;
68379;SDS011;57711;53.196;19.638;2024-02-28T13:42:10;13.60;;;9.10;;
68379;SDS011;57711;53.196;19.638;2024-02-28T13:44:37;15.20;;;9.70;;
68379;SDS011;57711;53.196;19.638;2024-02-28T13:47:05;15.20;;;10.10;;
68379;SDS011;57711;53.196;19.638;2024-02-28T13:49:32;16.40;;;9.40;;
68379;SDS011;57711;53.196;19.638;2024-02-28T13:51:59;14.30;;;9.80;;
68379;SDS011;57711;53.196;19.638;2024-02-28T13:54:27;16.20;;;10.80;;
68379;SDS011;57711;53.196;19.638;2024-02-28T13:56:54;14.00;;;10.30;;
68379;SDS011;57711;53.196;19.638;2024-02-28T13:59:21;15.30;;;10.20;;
68379;SDS011;57711;53.196;19.638;2024-02-28T14:01:48;15.70;;;9.50;;
68379;SDS011;57711;53.196;19.638;2024-02-28T14:04:16;13.00;;;9.30;;
68379;SDS011;57711;53.196;19.638;2024-02-28T14:06:43;14.50;;;9.30;;
68379;SDS011;57711;53.196;19.638;2024-02-28T14:09:11;28.10;;;14.70;;
68379;SDS011;57711;53.196;19.638;2024-02-28T14:11:38;20.00;;;11.80;;
68379;SDS011;57711;53.196;19.638;2024-02-28T14:14:06;15.20;;;10.20;;
68379;SDS011;57711;53.196;19.638;2024-02-28T14:16:34;18.80;;;11.10;;